Barbarossa — IBJD — position and weather

sailwx.info

Track history (hours):
 
Tides and Currents Weather Stations Pressure Air Temp Water Temp Dewpoint Dewpoint Depression Visibility Wind Speed Wind Dir Waves Ship Positions

Barbarossa

Last reported at 2019-Apr-24 22:38 UTC. Time now 2019-Apr-26 03:49 UTC.
Position N 36°25' E 023°14'.

Length 294 m; draft 8.1 m.

Type: Ship. MMSI: 247282900.

Date/timePositionNaut miles runAvg speedWind from/ knotsBaromVisibWave heightAir tempDewpointWater temp
2019-Apr-24 22:38N 36°25' E 023°14'1417.2
2019-Apr-24 21:48N 36°39' E 023°19'818.2
2019-Apr-24 21:22N 36°46' E 023°20'1617.7
2019-Apr-24 20:29N 37°01' E 023°27'1818.1
2019-Apr-24 19:31N 37°15' E 023°41'1017.3
2019-Apr-24 18:57N 37°24' E 023°44'918.0
2019-Apr-24 18:27N 37°33' E 023°45'817.3
2019-Apr-24 18:00N 37°40' E 023°42'917.9
2019-Apr-24 17:30N 37°49' E 023°37'714.7
2019-Apr-24 17:00N 37°56' E 023°37'0 0.9
2019-Apr-24 16:28N 37°56' E 023°37'0 0.0
2019-Apr-24 15:58N 37°56' E 023°37'0 0.0
2019-Apr-24 15:30N 37°56' E 023°37'0 0.0
2019-Apr-24 15:00N 37°56' E 023°37'0 0.0
2019-Apr-24 14:30N 37°56' E 023°37'0 0.0
2019-Apr-24 14:00N 37°56' E 023°37'0 0.0
2019-Apr-24 13:28N 37°56' E 023°37'0 0.0
2019-Apr-24 13:00N 37°56' E 023°37'0 0.0
2019-Apr-24 12:30N 37°56' E 023°37'0 0.0
2019-Apr-24 12:00N 37°56' E 023°37'0 0.0
2019-Apr-24 11:28N 37°56' E 023°37'0 0.0
2019-Apr-24 10:58N 37°56' E 023°37'0 0.0
2019-Apr-24 10:30N 37°56' E 023°37'0 0.0
2019-Apr-24 10:00N 37°56' E 023°37'0 0.0
2019-Apr-24 09:30N 37°56' E 023°37'0 0.0
2019-Apr-24 09:00N 37°56' E 023°37'0 0.2
2019-Apr-24 08:30N 37°56' E 023°37'1 2.0
2019-Apr-24 08:00N 37°55' E 023°37'611.8
2019-Apr-24 07:30N 37°50' E 023°40'918.8
2019-Apr-24 07:00N 37°41' E 023°45'918.9
2019-Apr-24 06:30N 37°32' E 023°44'1019.0
2019-Apr-24 06:00N 37°22' E 023°44'918.2
2019-Apr-24 05:30N 37°14' E 023°40'918.7
2019-Apr-24 05:00N 37°07' E 023°33'1018.7
2019-Apr-24 04:30N 36°59' E 023°26'  
2019-Apr-21 23:28N 43°43' E 014°06'1120.7
2019-Apr-21 22:57N 43°50' E 013°54'920.8
2019-Apr-21 22:30N 43°55' E 013°44'1020.6
2019-Apr-21 22:00N 44°01' E 013°32'1020.3
2019-Apr-21 21:30N 44°07' E 013°21'1019.5
2019-Apr-21 21:00N 44°14' E 013°11'1020.4
2019-Apr-21 20:30N 44°24' E 013°07'1020.4
2019-Apr-21 20:00N 44°34' E 013°03'1020.5
2019-Apr-21 19:30N 44°44' E 012°58'1020.1
2019-Apr-21 19:00N 44°53' E 012°52'918.2
2019-Apr-21 18:30N 45°01' E 012°46'917.7
2019-Apr-21 18:00N 45°08' E 012°39'816.7
2019-Apr-21 17:30N 45°13' E 012°30'816.8
2019-Apr-21 17:00N 45°22' E 012°30'510.2
2019-Apr-21 16:31N 45°26' E 012°25'3 5.4
2019-Apr-21 16:00N 45°26' E 012°21'2 4.0
2019-Apr-21 15:30N 45°26' E 012°18'0 0.7
2019-Apr-21 15:00N 45°26' E 012°19'0 0.0
2019-Apr-21 14:30N 45°26' E 012°19'0 0.0
2019-Apr-21 14:00N 45°26' E 012°19'0 0.0
2019-Apr-21 13:30N 45°26' E 012°19'0 0.0
2019-Apr-21 12:59N 45°26' E 012°19'0 0.0
2019-Apr-21 12:22N 45°26' E 012°19'0 0.0
2019-Apr-21 11:57N 45°26' E 012°19'0 0.0
2019-Apr-21 11:29N 45°26' E 012°19'0 0.0
2019-Apr-21 11:00N 45°26' E 012°19'0 0.0
2019-Apr-21 10:30N 45°26' E 012°19'0 0.0
2019-Apr-21 09:58N 45°26' E 012°19'0 0.0
2019-Apr-21 09:30N 45°26' E 012°19'0 0.0
2019-Apr-21 09:00N 45°26' E 012°19'0 0.0
2019-Apr-21 08:30N 45°26' E 012°19'0 0.0
2019-Apr-21 07:54N 45°26' E 012°19'0 0.0
2019-Apr-21 07:24N 45°26' E 012°19'0 0.0
2019-Apr-21 07:00N 45°26' E 012°19'0 0.6
2019-Apr-21 06:30N 45°26' E 012°18'2 3.6
2019-Apr-21 06:00N 45°26' E 012°21'2 4.7
2019-Apr-21 05:30N 45°26' E 012°24'4 8.3
2019-Apr-21 05:00N 45°24' E 012°30'612.1
2019-Apr-21 04:30N 45°18' E 012°32'714.5
2019-Apr-21 04:00N 45°13' E 012°39'714.8
2019-Apr-21 03:30N 45°09' E 012°48'714.7
2019-Apr-21 03:00N 45°02' E 012°52'714.7
2019-Apr-21 02:30N 44°55' E 012°56'918.3
2019-Apr-21 02:00N 44°47' E 013°01'918.5
2019-Apr-21 01:30N 44°38' E 013°05'918.4
2019-Apr-21 01:00N 44°29' E 013°09'918.4
2019-Apr-21 00:30N 44°20' E 013°13'918.1
2019-Apr-20 23:59N 44°13' E 013°22'4618.6
2019-Apr-20 21:31N 43°47' E 014°15'018.8
2019-Apr-20 21:29N 43°47' E 014°15'  
2019-Apr-17 19:16N 37°15' E 023°40'717.0
2019-Apr-17 18:53N 37°21' E 023°44'1018.5
2019-Apr-17 18:22N 37°31' E 023°43'718.2
2019-Apr-17 18:00N 37°37' E 023°43'918.1
2019-Apr-17 17:30N 37°46' E 023°38'816.8
2019-Apr-17 17:00N 37°54' E 023°37'3 5.4
2019-Apr-17 16:31N 37°56' E 023°38'0 0.1
2019-Apr-17 15:58N 37°56' E 023°38'0 0.0
2019-Apr-17 15:28N 37°56' E 023°38'0 0.0
2019-Apr-17 14:58N 37°56' E 023°38'0 0.0
2019-Apr-17 14:28N 37°56' E 023°38'0 0.0
2019-Apr-17 13:58N 37°56' E 023°38'0 0.0
2019-Apr-17 13:28N 37°56' E 023°38'0 0.0
2019-Apr-17 12:58N 37°56' E 023°38'0 0.0
2019-Apr-17 12:28N 37°56' E 023°38'0 0.0
2019-Apr-17 11:58N 37°56' E 023°38'0 0.0
2019-Apr-17 11:28N 37°56' E 023°38'0 0.0
2019-Apr-17 10:58N 37°56' E 023°38'0 0.0
2019-Apr-17 10:28N 37°56' E 023°38'0 0.0
2019-Apr-17 09:58N 37°56' E 023°38'0 0.0
2019-Apr-17 09:30N 37°56' E 023°38'0 0.0
2019-Apr-17 09:01N 37°56' E 023°38'0 0.2
2019-Apr-17 08:31N 37°56' E 023°38'2 3.0
2019-Apr-17 08:01N 37°56' E 023°37'3 6.6
2019-Apr-17 07:30N 37°53' E 023°38'815.9
2019-Apr-17 07:00N 37°45' E 023°42'918.7
2019-Apr-17 06:30N 37°36' E 023°45'1019.0
2019-Apr-17 06:00N 37°27' E 023°44'918.9
2019-Apr-17 05:30N 37°17' E 023°43'1519.1
2019-Apr-17 04:44N 37°06' E 023°32'419.2
2019-Apr-17 04:30N 37°03' E 023°28'  
Track history (hours):
 
Tides and Currents Weather Stations Pressure Air Temp Water Temp Dewpoint Dewpoint Depression Visibility Wind Speed Wind Dir Waves Ship Positions

Barbarossa

Last reported at 2019-Apr-24 22:38 UTC. Time now 2019-Apr-26 03:49 UTC.
Position N 36°25' E 023°14'.

Length 294 m; draft 8.1 m.

Type: Ship. MMSI: 247282900.

Date/timePositionNaut miles runAvg speedWind from/ knotsBaromVisibWave heightAir tempDewpointWater temp
2019-Apr-24 22:38N 36°25' E 023°14'1417.2
2019-Apr-24 21:48N 36°39' E 023°19'818.2
2019-Apr-24 21:22N 36°46' E 023°20'1617.7
2019-Apr-24 20:29N 37°01' E 023°27'1818.1
2019-Apr-24 19:31N 37°15' E 023°41'1017.3
2019-Apr-24 18:57N 37°24' E 023°44'918.0
2019-Apr-24 18:27N 37°33' E 023°45'817.3
2019-Apr-24 18:00N 37°40' E 023°42'917.9
2019-Apr-24 17:30N 37°49' E 023°37'714.7
2019-Apr-24 17:00N 37°56' E 023°37'0 0.9
2019-Apr-24 16:28N 37°56' E 023°37'0 0.0
2019-Apr-24 15:58N 37°56' E 023°37'0 0.0
2019-Apr-24 15:30N 37°56' E 023°37'0 0.0
2019-Apr-24 15:00N 37°56' E 023°37'0 0.0
2019-Apr-24 14:30N 37°56' E 023°37'0 0.0
2019-Apr-24 14:00N 37°56' E 023°37'0 0.0
2019-Apr-24 13:28N 37°56' E 023°37'0 0.0
2019-Apr-24 13:00N 37°56' E 023°37'0 0.0
2019-Apr-24 12:30N 37°56' E 023°37'0 0.0
2019-Apr-24 12:00N 37°56' E 023°37'0 0.0
2019-Apr-24 11:28N 37°56' E 023°37'0 0.0
2019-Apr-24 10:58N 37°56' E 023°37'0 0.0
2019-Apr-24 10:30N 37°56' E 023°37'0 0.0
2019-Apr-24 10:00N 37°56' E 023°37'0 0.0
2019-Apr-24 09:30N 37°56' E 023°37'0 0.0
2019-Apr-24 09:00N 37°56' E 023°37'0 0.2
2019-Apr-24 08:30N 37°56' E 023°37'1 2.0
2019-Apr-24 08:00N 37°55' E 023°37'611.8
2019-Apr-24 07:30N 37°50' E 023°40'918.8
2019-Apr-24 07:00N 37°41' E 023°45'918.9
2019-Apr-24 06:30N 37°32' E 023°44'1019.0
2019-Apr-24 06:00N 37°22' E 023°44'918.2
2019-Apr-24 05:30N 37°14' E 023°40'918.7
2019-Apr-24 05:00N 37°07' E 023°33'1018.7
2019-Apr-24 04:30N 36°59' E 023°26'  
2019-Apr-21 23:28N 43°43' E 014°06'1120.7
2019-Apr-21 22:57N 43°50' E 013°54'920.8
2019-Apr-21 22:30N 43°55' E 013°44'1020.6
2019-Apr-21 22:00N 44°01' E 013°32'1020.3
2019-Apr-21 21:30N 44°07' E 013°21'1019.5
2019-Apr-21 21:00N 44°14' E 013°11'1020.4
2019-Apr-21 20:30N 44°24' E 013°07'1020.4
2019-Apr-21 20:00N 44°34' E 013°03'1020.5
2019-Apr-21 19:30N 44°44' E 012°58'1020.1
2019-Apr-21 19:00N 44°53' E 012°52'918.2
2019-Apr-21 18:30N 45°01' E 012°46'917.7
2019-Apr-21 18:00N 45°08' E 012°39'816.7
2019-Apr-21 17:30N 45°13' E 012°30'816.8
2019-Apr-21 17:00N 45°22' E 012°30'510.2
2019-Apr-21 16:31N 45°26' E 012°25'3 5.4
2019-Apr-21 16:00N 45°26' E 012°21'2 4.0
2019-Apr-21 15:30N 45°26' E 012°18'0 0.7
2019-Apr-21 15:00N 45°26' E 012°19'0 0.0
2019-Apr-21 14:30N 45°26' E 012°19'0 0.0
2019-Apr-21 14:00N 45°26' E 012°19'0 0.0
2019-Apr-21 13:30N 45°26' E 012°19'0 0.0
2019-Apr-21 12:59N 45°26' E 012°19'0 0.0
2019-Apr-21 12:22N 45°26' E 012°19'0 0.0
2019-Apr-21 11:57N 45°26' E 012°19'0 0.0
2019-Apr-21 11:29N 45°26' E 012°19'0 0.0
2019-Apr-21 11:00N 45°26' E 012°19'0 0.0
2019-Apr-21 10:30N 45°26' E 012°19'0 0.0
2019-Apr-21 09:58N 45°26' E 012°19'0 0.0
2019-Apr-21 09:30N 45°26' E 012°19'0 0.0
2019-Apr-21 09:00N 45°26' E 012°19'0 0.0
2019-Apr-21 08:30N 45°26' E 012°19'0 0.0
2019-Apr-21 07:54N 45°26' E 012°19'0 0.0
2019-Apr-21 07:24N 45°26' E 012°19'0 0.0
2019-Apr-21 07:00N 45°26' E 012°19'0 0.6
2019-Apr-21 06:30N 45°26' E 012°18'2 3.6
2019-Apr-21 06:00N 45°26' E 012°21'2 4.7
2019-Apr-21 05:30N 45°26' E 012°24'4 8.3
2019-Apr-21 05:00N 45°24' E 012°30'612.1
2019-Apr-21 04:30N 45°18' E 012°32'714.5
2019-Apr-21 04:00N 45°13' E 012°39'714.8
2019-Apr-21 03:30N 45°09' E 012°48'714.7
2019-Apr-21 03:00N 45°02' E 012°52'714.7
2019-Apr-21 02:30N 44°55' E 012°56'918.3
2019-Apr-21 02:00N 44°47' E 013°01'918.5
2019-Apr-21 01:30N 44°38' E 013°05'918.4
2019-Apr-21 01:00N 44°29' E 013°09'918.4
2019-Apr-21 00:30N 44°20' E 013°13'918.1
2019-Apr-20 23:59N 44°13' E 013°22'4618.6
2019-Apr-20 21:31N 43°47' E 014°15'018.8
2019-Apr-20 21:29N 43°47' E 014°15'  
2019-Apr-17 19:16N 37°15' E 023°40'717.0
2019-Apr-17 18:53N 37°21' E 023°44'1018.5
2019-Apr-17 18:22N 37°31' E 023°43'718.2
2019-Apr-17 18:00N 37°37' E 023°43'918.1
2019-Apr-17 17:30N 37°46' E 023°38'816.8
2019-Apr-17 17:00N 37°54' E 023°37'3 5.4
2019-Apr-17 16:31N 37°56' E 023°38'0 0.1
2019-Apr-17 15:58N 37°56' E 023°38'0 0.0
2019-Apr-17 15:28N 37°56' E 023°38'0 0.0
2019-Apr-17 14:58N 37°56' E 023°38'0 0.0
2019-Apr-17 14:28N 37°56' E 023°38'0 0.0
2019-Apr-17 13:58N 37°56' E 023°38'0 0.0
2019-Apr-17 13:28N 37°56' E 023°38'0 0.0
2019-Apr-17 12:58N 37°56' E 023°38'0 0.0
2019-Apr-17 12:28N 37°56' E 023°38'0 0.0
2019-Apr-17 11:58N 37°56' E 023°38'0 0.0
2019-Apr-17 11:28N 37°56' E 023°38'0 0.0
2019-Apr-17 10:58N 37°56' E 023°38'0 0.0
2019-Apr-17 10:28N 37°56' E 023°38'0 0.0
2019-Apr-17 09:58N 37°56' E 023°38'0 0.0
2019-Apr-17 09:30N 37°56' E 023°38'0 0.0
2019-Apr-17 09:01N 37°56' E 023°38'0 0.2
2019-Apr-17 08:31N 37°56' E 023°38'2 3.0
2019-Apr-17 08:01N 37°56' E 023°37'3 6.6
2019-Apr-17 07:30N 37°53' E 023°38'815.9
2019-Apr-17 07:00N 37°45' E 023°42'918.7
2019-Apr-17 06:30N 37°36' E 023°45'1019.0
2019-Apr-17 06:00N 37°27' E 023°44'918.9
2019-Apr-17 05:30N 37°17' E 023°43'1519.1
2019-Apr-17 04:44N 37°06' E 023°32'419.2
2019-Apr-17 04:30N 37°03' E 023°28'  

Dump ship's entire track history